EDDM/MUC METAR and TAF weather

Enter ICAO airport designator
Station Type Date Time Source
EDDM METAR 2022/05/23 13:50 UTC NOAA

EDDM 231350Z AUTO 05007KT 010V100 CAVOK 24/13 Q1005 NOSIG


Station Type Date Time Source
EDDM Decoded METAR 2022/05/23 13:50 UTC NOAA

Munchen, Germany (EDDM) 48-21N 011-47E
May 23, 2022 - 09:50 AM EDT / 2022.05.23 1350 UTC
Wind: from the NE (050 degrees) at 8 MPH (7 KT) (direction variable):0
Visibility: greater than 7 mile(s):0
Temperature: 75 F (24 C)
Dew Point: 55 F (13 C)
Relative Humidity: 50%
Pressure (altimeter): 29.68 in. Hg (1005 hPa)
ob: EDDM 231350Z AUTO 05007KT 010V100 CAVOK 24/13 Q1005 NOSIG
cycle: 14

Station Type Date Time Source
EDDM TAF 2022/05/23 12:27 UTC NOAA

TAF EDDM 231100Z 2312/2418 11010KT CAVOK PROB30
TEMPO 2312/2315 23020G45KT 4000 TSRAGR SCT020 BKN040CB
BECMG 2318/2320 23007KT
TEMPO 2318/2321 23020G45KT 4000 TSRA BKN020CB PROB30
TEMPO 2318/2321 23030G60KT 2000 +TSRAGR

Example: see airport list